sensor_id;sensor_type;location;lat;lon;timestamp;temperature;humidity
71039;SHT30;58692;43.212;27.908;2023-01-30T00:01:00;2.11;68.85
71039;SHT30;58692;43.212;27.908;2023-01-30T00:03:26;2.13;68.65
71039;SHT30;58692;43.212;27.908;2023-01-30T00:05:51;2.13;68.76
71039;SHT30;58692;43.212;27.908;2023-01-30T00:08:17;2.13;68.74
71039;SHT30;58692;43.212;27.908;2023-01-30T00:10:43;2.11;68.81
71039;SHT30;58692;43.212;27.908;2023-01-30T00:13:09;2.04;68.80
71039;SHT30;58692;43.212;27.908;2023-01-30T00:15:36;2.10;68.78
71039;SHT30;58692;43.212;27.908;2023-01-30T00:18:01;2.10;69.11
71039;SHT30;58692;43.212;27.908;2023-01-30T00:20:27;2.06;69.43
71039;SHT30;58692;43.212;27.908;2023-01-30T00:22:52;2.02;69.59
71039;SHT30;58692;43.212;27.908;2023-01-30T00:25:18;1.93;69.63
71039;SHT30;58692;43.212;27.908;2023-01-30T00:27:43;1.89;69.65
71039;SHT30;58692;43.212;27.908;2023-01-30T00:30:09;1.87;69.68
71039;SHT30;58692;43.212;27.908;2023-01-30T00:32:35;1.92;69.62
71039;SHT30;58692;43.212;27.908;2023-01-30T00:35:00;1.99;69.50
71039;SHT30;58692;43.212;27.908;2023-01-30T00:37:26;1.94;69.34
71039;SHT30;58692;43.212;27.908;2023-01-30T00:39:51;1.99;69.18
71039;SHT30;58692;43.212;27.908;2023-01-30T00:42:17;1.99;69.20
71039;SHT30;58692;43.212;27.908;2023-01-30T00:44:57;1.96;69.47
71039;SHT30;58692;43.212;27.908;2023-01-30T00:47:38;1.99;69.27
71039;SHT30;58692;43.212;27.908;2023-01-30T00:50:04;2.04;68.64
71039;SHT30;58692;43.212;27.908;2023-01-30T00:52:30;2.03;68.46
71039;SHT30;58692;43.212;27.908;2023-01-30T00:54:55;2.06;68.28
71039;SHT30;58692;43.212;27.908;2023-01-30T00:57:21;2.13;68.31
71039;SHT30;58692;43.212;27.908;2023-01-30T00:59:46;2.16;68.36
71039;SHT30;58692;43.212;27.908;2023-01-30T01:02:12;2.17;68.56
71039;SHT30;58692;43.212;27.908;2023-01-30T01:04:37;2.17;68.32
71039;SHT30;58692;43.212;27.908;2023-01-30T01:07:11;2.21;68.35
71039;SHT30;58692;43.212;27.908;2023-01-30T01:09:37;2.14;68.35
71039;SHT30;58692;43.212;27.908;2023-01-30T01:12:03;2.13;68.30
71039;SHT30;58692;43.212;27.908;2023-01-30T01:14:29;2.14;68.40
71039;SHT30;58692;43.212;27.908;2023-01-30T01:16:55;2.13;68.46
71039;SHT30;58692;43.212;27.908;2023-01-30T01:19:20;2.10;68.40
71039;SHT30;58692;43.212;27.908;2023-01-30T01:21:46;2.03;68.37
71039;SHT30;58692;43.212;27.908;2023-01-30T01:24:13;2.03;68.52
71039;SHT30;58692;43.212;27.908;2023-01-30T01:26:39;2.04;68.54
71039;SHT30;58692;43.212;27.908;2023-01-30T01:29:06;2.03;68.57
71039;SHT30;58692;43.212;27.908;2023-01-30T01:31:34;2.06;68.54
71039;SHT30;58692;43.212;27.908;2023-01-30T01:34:00;2.09;68.31
71039;SHT30;58692;43.212;27.908;2023-01-30T01:36:25;2.06;68.40
71039;SHT30;58692;43.212;27.908;2023-01-30T01:38:51;2.07;68.60
71039;SHT30;58692;43.212;27.908;2023-01-30T01:41:17;2.00;69.12
71039;SHT30;58692;43.212;27.908;2023-01-30T01:46:28;2.02;68.95
71039;SHT30;58692;43.212;27.908;2023-01-30T01:48:57;1.94;68.97
71039;SHT30;58692;43.212;27.908;2023-01-30T01:51:32;1.90;69.39
71039;SHT30;58692;43.212;27.908;2023-01-30T01:54:05;1.93;69.33
71039;SHT30;58692;43.212;27.908;2023-01-30T01:56:32;1.92;69.52
71039;SHT30;58692;43.212;27.908;2023-01-30T01:59:05;1.86;69.73
71039;SHT30;58692;43.212;27.908;2023-01-30T02:01:33;1.92;69.80
71039;SHT30;58692;43.212;27.908;2023-01-30T02:04:02;1.85;70.01
71039;SHT30;58692;43.212;27.908;2023-01-30T02:06:29;1.87;70.26
71039;SHT30;58692;43.212;27.908;2023-01-30T02:08:58;1.92;70.18
71039;SHT30;58692;43.212;27.908;2023-01-30T02:11:48;1.85;70.66
71039;SHT30;58692;43.212;27.908;2023-01-30T02:14:14;1.85;70.96
71039;SHT30;58692;43.212;27.908;2023-01-30T02:16:42;1.80;71.21
71039;SHT30;58692;43.212;27.908;2023-01-30T02:22:16;1.70;74.20
71039;SHT30;58692;43.212;27.908;2023-01-30T02:25:13;1.70;74.75
71039;SHT30;58692;43.212;27.908;2023-01-30T02:41:42;1.51;78.46
71039;SHT30;58692;43.212;27.908;2023-01-30T02:47:10;1.38;79.38
71039;SHT30;58692;43.212;27.908;2023-01-30T02:49:42;1.48;79.33
71039;SHT30;58692;43.212;27.908;2023-01-30T02:52:11;1.49;79.22
71039;SHT30;58692;43.212;27.908;2023-01-30T02:54:37;1.49;79.32
71039;SHT30;58692;43.212;27.908;2023-01-30T02:57:14;1.42;79.41
71039;SHT30;58692;43.212;27.908;2023-01-30T02:59:43;1.41;79.65
71039;SHT30;58692;43.212;27.908;2023-01-30T03:07:48;1.30;80.18
71039;SHT30;58692;43.212;27.908;2023-01-30T03:10:28;1.36;79.92
71039;SHT30;58692;43.212;27.908;2023-01-30T03:15:39;1.30;80.35
71039;SHT30;58692;43.212;27.908;2023-01-30T03:18:06;1.31;80.42
71039;SHT30;58692;43.212;27.908;2023-01-30T03:20:36;1.35;80.09
71039;SHT30;58692;43.212;27.908;2023-01-30T03:23:03;1.34;80.20
71039;SHT30;58692;43.212;27.908;2023-01-30T03:25:28;1.28;80.55
71039;SHT30;58692;43.212;27.908;2023-01-30T03:27:55;1.30;80.44
71039;SHT30;58692;43.212;27.908;2023-01-30T03:30:24;1.32;80.47
71039;SHT30;58692;43.212;27.908;2023-01-30T03:32:49;1.42;80.37
71039;SHT30;58692;43.212;27.908;2023-01-30T03:35:15;1.39;80.51
71039;SHT30;58692;43.212;27.908;2023-01-30T03:37:43;1.45;80.54
71039;SHT30;58692;43.212;27.908;2023-01-30T03:40:09;1.51;80.58
71039;SHT30;58692;43.212;27.908;2023-01-30T03:42:35;1.42;80.89
71039;SHT30;58692;43.212;27.908;2023-01-30T03:45:01;1.43;81.17
71039;SHT30;58692;43.212;27.908;2023-01-30T03:47:26;1.38;81.34
71039;SHT30;58692;43.212;27.908;2023-01-30T03:49:52;1.39;81.80
71039;SHT30;58692;43.212;27.908;2023-01-30T03:52:17;1.32;82.08
71039;SHT30;58692;43.212;27.908;2023-01-30T03:54:43;1.34;82.30
71039;SHT30;58692;43.212;27.908;2023-01-30T03:57:08;1.12;83.26
71039;SHT30;58692;43.212;27.908;2023-01-30T03:59:34;1.18;83.32
71039;SHT30;58692;43.212;27.908;2023-01-30T04:01:59;1.24;83.43
71039;SHT30;58692;43.212;27.908;2023-01-30T04:04:25;1.27;83.48
71039;SHT30;58692;43.212;27.908;2023-01-30T04:06:50;1.24;83.79
71039;SHT30;58692;43.212;27.908;2023-01-30T04:09:16;1.12;84.22
71039;SHT30;58692;43.212;27.908;2023-01-30T04:11:41;1.01;84.76
71039;SHT30;58692;43.212;27.908;2023-01-30T04:14:07;1.09;84.75
71039;SHT30;58692;43.212;27.908;2023-01-30T04:16:32;1.09;84.69
71039;SHT30;58692;43.212;27.908;2023-01-30T04:18:58;1.15;84.51
71039;SHT30;58692;43.212;27.908;2023-01-30T04:21:23;1.22;84.67
71039;SHT30;58692;43.212;27.908;2023-01-30T04:23:49;1.21;84.80
71039;SHT30;58692;43.212;27.908;2023-01-30T04:26:14;1.22;84.90
71039;SHT30;58692;43.212;27.908;2023-01-30T04:28:40;1.28;85.17
71039;SHT30;58692;43.212;27.908;2023-01-30T04:31:06;1.27;84.90
71039;SHT30;58692;43.212;27.908;2023-01-30T04:33:32;1.32;84.84
71039;SHT30;58692;43.212;27.908;2023-01-30T04:36:00;1.31;85.29
71039;SHT30;58692;43.212;27.908;2023-01-30T04:38:26;1.21;84.95
71039;SHT30;58692;43.212;27.908;2023-01-30T04:40:54;1.21;85.17
71039;SHT30;58692;43.212;27.908;2023-01-30T04:43:21;1.25;85.23
71039;SHT30;58692;43.212;27.908;2023-01-30T04:45:48;1.31;85.63
71039;SHT30;58692;43.212;27.908;2023-01-30T04:48:15;1.28;85.96
71039;SHT30;58692;43.212;27.908;2023-01-30T04:50:42;1.24;86.17
71039;SHT30;58692;43.212;27.908;2023-01-30T04:53:09;1.20;86.53
71039;SHT30;58692;43.212;27.908;2023-01-30T04:55:35;1.14;86.37
71039;SHT30;58692;43.212;27.908;2023-01-30T04:58:01;1.11;86.95
71039;SHT30;58692;43.212;27.908;2023-01-30T05:00:27;1.15;86.95
71039;SHT30;58692;43.212;27.908;2023-01-30T05:02:53;1.07;87.55
71039;SHT30;58692;43.212;27.908;2023-01-30T05:05:21;1.08;87.10
71039;SHT30;58692;43.212;27.908;2023-01-30T05:07:47;1.01;87.00
71039;SHT30;58692;43.212;27.908;2023-01-30T05:10:13;1.04;86.87
71039;SHT30;58692;43.212;27.908;2023-01-30T05:12:39;1.05;87.38
71039;SHT30;58692;43.212;27.908;2023-01-30T05:15:05;1.01;87.55
71039;SHT30;58692;43.212;27.908;2023-01-30T05:17:32;0.95;88.08
71039;SHT30;58692;43.212;27.908;2023-01-30T05:19:58;0.94;87.88
71039;SHT30;58692;43.212;27.908;2023-01-30T05:23:10;1.02;87.98
71039;SHT30;58692;43.212;27.908;2023-01-30T05:25:55;1.07;87.69
71039;SHT30;58692;43.212;27.908;2023-01-30T05:28:31;1.07;87.65
71039;SHT30;58692;43.212;27.908;2023-01-30T05:31:06;0.90;87.41
71039;SHT30;58692;43.212;27.908;2023-01-30T05:34:08;0.84;86.74
71039;SHT30;58692;43.212;27.908;2023-01-30T05:36:36;0.91;88.28
71039;SHT30;58692;43.212;27.908;2023-01-30T05:39:07;0.91;88.17
71039;SHT30;58692;43.212;27.908;2023-01-30T05:41:33;0.94;88.06
71039;SHT30;58692;43.212;27.908;2023-01-30T05:43:58;0.91;87.54
71039;SHT30;58692;43.212;27.908;2023-01-30T05:46:24;0.85;87.39
71039;SHT30;58692;43.212;27.908;2023-01-30T05:48:49;0.90;87.96
71039;SHT30;58692;43.212;27.908;2023-01-30T05:51:21;1.00;87.84
71039;SHT30;58692;43.212;27.908;2023-01-30T05:53:47;1.01;87.51
71039;SHT30;58692;43.212;27.908;2023-01-30T05:56:13;1.01;87.85
71039;SHT30;58692;43.212;27.908;2023-01-30T05:58:42;1.07;87.86
71039;SHT30;58692;43.212;27.908;2023-01-30T06:01:11;1.17;87.42
71039;SHT30;58692;43.212;27.908;2023-01-30T06:03:37;1.14;86.33
71039;SHT30;58692;43.212;27.908;2023-01-30T06:06:05;1.21;86.35
71039;SHT30;58692;43.212;27.908;2023-01-30T06:08:31;1.11;86.09
71039;SHT30;58692;43.212;27.908;2023-01-30T06:11:05;1.05;85.43
71039;SHT30;58692;43.212;27.908;2023-01-30T06:13:34;1.07;86.68
71039;SHT30;58692;43.212;27.908;2023-01-30T06:16:00;1.08;86.15
71039;SHT30;58692;43.212;27.908;2023-01-30T06:18:26;1.02;86.16
71039;SHT30;58692;43.212;27.908;2023-01-30T06:20:52;1.09;86.05
71039;SHT30;58692;43.212;27.908;2023-01-30T06:23:41;1.15;86.39
71039;SHT30;58692;43.212;27.908;2023-01-30T06:26:08;1.21;86.28
71039;SHT30;58692;43.212;27.908;2023-01-30T06:28:34;1.07;85.69
71039;SHT30;58692;43.212;27.908;2023-01-30T06:31:04;1.05;85.85
71039;SHT30;58692;43.212;27.908;2023-01-30T06:33:31;1.09;85.63
71039;SHT30;58692;43.212;27.908;2023-01-30T06:36:17;1.08;86.03
71039;SHT30;58692;43.212;27.908;2023-01-30T06:38:51;0.97;85.80
71039;SHT30;58692;43.212;27.908;2023-01-30T06:41:19;0.98;85.32
71039;SHT30;58692;43.212;27.908;2023-01-30T06:44:23;1.07;85.47
71039;SHT30;58692;43.212;27.908;2023-01-30T06:46:52;1.11;85.84
71039;SHT30;58692;43.212;27.908;2023-01-30T06:49:18;1.12;85.20
71039;SHT30;58692;43.212;27.908;2023-01-30T06:51:44;1.09;85.40
71039;SHT30;58692;43.212;27.908;2023-01-30T06:54:12;1.08;85.73
71039;SHT30;58692;43.212;27.908;2023-01-30T06:56:38;1.15;85.32
71039;SHT30;58692;43.212;27.908;2023-01-30T06:59:06;1.14;85.19
71039;SHT30;58692;43.212;27.908;2023-01-30T07:01:31;1.21;85.72
71039;SHT30;58692;43.212;27.908;2023-01-30T07:03:57;1.24;86.50
71039;SHT30;58692;43.212;27.908;2023-01-30T07:06:27;1.25;85.89
71039;SHT30;58692;43.212;27.908;2023-01-30T07:08:53;1.34;85.79
71039;SHT30;58692;43.212;27.908;2023-01-30T07:11:21;1.31;85.81
71039;SHT30;58692;43.212;27.908;2023-01-30T07:13:46;1.30;86.16
71039;SHT30;58692;43.212;27.908;2023-01-30T07:16:12;1.38;86.35
71039;SHT30;58692;43.212;27.908;2023-01-30T07:18:37;1.28;85.90
71039;SHT30;58692;43.212;27.908;2023-01-30T07:21:04;1.22;85.62
71039;SHT30;58692;43.212;27.908;2023-01-30T07:23:29;1.27;85.90
71039;SHT30;58692;43.212;27.908;2023-01-30T07:25:55;1.25;86.17
71039;SHT30;58692;43.212;27.908;2023-01-30T07:28:21;1.31;85.60
71039;SHT30;58692;43.212;27.908;2023-01-30T07:30:46;1.36;86.38
71039;SHT30;58692;43.212;27.908;2023-01-30T07:33:19;1.41;85.98
71039;SHT30;58692;43.212;27.908;2023-01-30T07:35:45;1.36;85.21
71039;SHT30;58692;43.212;27.908;2023-01-30T07:38:11;1.43;85.46
71039;SHT30;58692;43.212;27.908;2023-01-30T07:40:36;1.49;84.64
71039;SHT30;58692;43.212;27.908;2023-01-30T07:43:07;1.49;84.24
71039;SHT30;58692;43.212;27.908;2023-01-30T07:45:39;1.60;84.97
71039;SHT30;58692;43.212;27.908;2023-01-30T07:48:06;1.65;85.37
71039;SHT30;58692;43.212;27.908;2023-01-30T07:50:31;1.62;85.06
71039;SHT30;58692;43.212;27.908;2023-01-30T07:52:57;1.66;84.86
71039;SHT30;58692;43.212;27.908;2023-01-30T07:55:23;1.62;84.90
71039;SHT30;58692;43.212;27.908;2023-01-30T07:57:51;1.70;85.23
71039;SHT30;58692;43.212;27.908;2023-01-30T08:00:17;1.67;84.53
71039;SHT30;58692;43.212;27.908;2023-01-30T08:02:43;1.66;84.58
71039;SHT30;58692;43.212;27.908;2023-01-30T08:05:08;1.79;84.14
71039;SHT30;58692;43.212;27.908;2023-01-30T08:07:34;1.79;83.24
71039;SHT30;58692;43.212;27.908;2023-01-30T08:10:00;1.70;82.47
71039;SHT30;58692;43.212;27.908;2023-01-30T08:12:26;1.65;81.63
71039;SHT30;58692;43.212;27.908;2023-01-30T08:14:51;1.72;82.12
71039;SHT30;58692;43.212;27.908;2023-01-30T08:17:17;1.66;81.84
71039;SHT30;58692;43.212;27.908;2023-01-30T08:19:42;1.67;82.68
71039;SHT30;58692;43.212;27.908;2023-01-30T08:22:16;1.80;82.28
71039;SHT30;58692;43.212;27.908;2023-01-30T08:24:44;1.93;81.97
71039;SHT30;58692;43.212;27.908;2023-01-30T08:27:10;1.92;82.11
71039;SHT30;58692;43.212;27.908;2023-01-30T08:29:35;1.89;81.55
71039;SHT30;58692;43.212;27.908;2023-01-30T08:32:04;1.92;81.24
71039;SHT30;58692;43.212;27.908;2023-01-30T08:34:29;1.99;81.17
71039;SHT30;58692;43.212;27.908;2023-01-30T08:36:55;2.07;81.37
71039;SHT30;58692;43.212;27.908;2023-01-30T08:39:20;2.07;80.51
71039;SHT30;58692;43.212;27.908;2023-01-30T08:41:46;2.09;80.43
71039;SHT30;58692;43.212;27.908;2023-01-30T08:44:11;2.14;81.17
71039;SHT30;58692;43.212;27.908;2023-01-30T08:46:38;2.36;80.65
71039;SHT30;58692;43.212;27.908;2023-01-30T08:49:06;2.41;80.35
71039;SHT30;58692;43.212;27.908;2023-01-30T08:51:32;2.36;80.08
71039;SHT30;58692;43.212;27.908;2023-01-30T08:53:58;2.55;79.85
71039;SHT30;58692;43.212;27.908;2023-01-30T08:56:23;2.61;79.70
71039;SHT30;58692;43.212;27.908;2023-01-30T08:58:49;2.75;79.64
71039;SHT30;58692;43.212;27.908;2023-01-30T09:01:15;2.84;79.53
71039;SHT30;58692;43.212;27.908;2023-01-30T09:03:41;2.93;78.76
71039;SHT30;58692;43.212;27.908;2023-01-30T09:06:07;3.19;78.28
71039;SHT30;58692;43.212;27.908;2023-01-30T09:08:33;3.32;77.92
71039;SHT30;58692;43.212;27.908;2023-01-30T09:11:16;3.49;76.91
71039;SHT30;58692;43.212;27.908;2023-01-30T09:13:50;3.78;76.42
71039;SHT30;58692;43.212;27.908;2023-01-30T09:16:21;3.90;75.55
71039;SHT30;58692;43.212;27.908;2023-01-30T09:18:47;3.93;74.29
71039;SHT30;58692;43.212;27.908;2023-01-30T09:21:13;4.09;74.24
71039;SHT30;58692;43.212;27.908;2023-01-30T09:23:39;4.34;73.66
71039;SHT30;58692;43.212;27.908;2023-01-30T09:26:04;4.66;72.80
71039;SHT30;58692;43.212;27.908;2023-01-30T09:28:34;5.09;72.31
71039;SHT30;58692;43.212;27.908;2023-01-30T09:31:07;5.09;70.80
71039;SHT30;58692;43.212;27.908;2023-01-30T09:33:33;5.00;71.00
71039;SHT30;58692;43.212;27.908;2023-01-30T09:36:04;5.06;71.44
71039;SHT30;58692;43.212;27.908;2023-01-30T09:38:33;5.27;71.43
71039;SHT30;58692;43.212;27.908;2023-01-30T09:41:12;5.11;70.64
71039;SHT30;58692;43.212;27.908;2023-01-30T09:44:13;5.23;70.78
71039;SHT30;58692;43.212;27.908;2023-01-30T09:47:02;5.56;70.33
71039;SHT30;58692;43.212;27.908;2023-01-30T09:49:37;5.95;68.77
71039;SHT30;58692;43.212;27.908;2023-01-30T09:55:16;6.77;66.91
71039;SHT30;58692;43.212;27.908;2023-01-30T09:57:44;7.35;64.82
71039;SHT30;58692;43.212;27.908;2023-01-30T10:00:25;7.42;63.75
71039;SHT30;58692;43.212;27.908;2023-01-30T10:03:00;8.69;60.33
71039;SHT30;58692;43.212;27.908;2023-01-30T10:05:36;8.23;61.20
71039;SHT30;58692;43.212;27.908;2023-01-30T10:14:18;9.13;58.79
71039;SHT30;58692;43.212;27.908;2023-01-30T10:16:55;9.02;58.73
71039;SHT30;58692;43.212;27.908;2023-01-30T10:22:19;9.03;59.21
71039;SHT30;58692;43.212;27.908;2023-01-30T10:27:52;10.80;54.22
71039;SHT30;58692;43.212;27.908;2023-01-30T10:30:19;10.84;53.85
71039;SHT30;58692;43.212;27.908;2023-01-30T10:32:48;11.38;51.61
71039;SHT30;58692;43.212;27.908;2023-01-30T10:35:18;11.10;51.50
71039;SHT30;58692;43.212;27.908;2023-01-30T10:37:58;11.23;51.55
71039;SHT30;58692;43.212;27.908;2023-01-30T10:40:36;11.90;50.94
71039;SHT30;58692;43.212;27.908;2023-01-30T10:43:21;12.03;49.46
71039;SHT30;58692;43.212;27.908;2023-01-30T10:48:58;11.59;49.00
71039;SHT30;58692;43.212;27.908;2023-01-30T10:54:19;11.18;50.36
71039;SHT30;58692;43.212;27.908;2023-01-30T10:57:05;11.48;49.33
71039;SHT30;58692;43.212;27.908;2023-01-30T11:02:44;11.08;51.06
71039;SHT30;58692;43.212;27.908;2023-01-30T11:05:18;10.84;51.66
71039;SHT30;58692;43.212;27.908;2023-01-30T11:07:46;11.31;50.54
71039;SHT30;58692;43.212;27.908;2023-01-30T11:10:17;10.94;51.91
71039;SHT30;58692;43.212;27.908;2023-01-30T11:12:43;9.24;55.50
71039;SHT30;58692;43.212;27.908;2023-01-30T11:15:09;9.39;56.16
71039;SHT30;58692;43.212;27.908;2023-01-30T11:17:39;10.50;54.69
71039;SHT30;58692;43.212;27.908;2023-01-30T11:20:14;9.94;56.13
71039;SHT30;58692;43.212;27.908;2023-01-30T11:22:51;10.42;55.32
71039;SHT30;58692;43.212;27.908;2023-01-30T11:25:22;10.86;54.16
71039;SHT30;58692;43.212;27.908;2023-01-30T11:27:54;10.83;53.27
71039;SHT30;58692;43.212;27.908;2023-01-30T11:30:51;10.05;55.61
71039;SHT30;58692;43.212;27.908;2023-01-30T11:33:18;8.59;59.51
71039;SHT30;58692;43.212;27.908;2023-01-30T11:36:02;8.03;58.98
71039;SHT30;58692;43.212;27.908;2023-01-30T11:38:31;7.65;59.57
71039;SHT30;58692;43.212;27.908;2023-01-30T11:43:27;7.23;60.01
71039;SHT30;58692;43.212;27.908;2023-01-30T11:45:54;7.18;60.21
71039;SHT30;58692;43.212;27.908;2023-01-30T11:48:22;7.12;60.59
71039;SHT30;58692;43.212;27.908;2023-01-30T11:50:58;6.91;61.02
71039;SHT30;58692;43.212;27.908;2023-01-30T11:53:34;6.71;61.48
71039;SHT30;58692;43.212;27.908;2023-01-30T11:56:11;6.74;61.91
71039;SHT30;58692;43.212;27.908;2023-01-30T11:58:41;6.80;61.91
71039;SHT30;58692;43.212;27.908;2023-01-30T12:01:11;6.63;62.04
71039;SHT30;58692;43.212;27.908;2023-01-30T12:03:44;6.47;63.12
71039;SHT30;58692;43.212;27.908;2023-01-30T12:06:20;6.47;63.09
71039;SHT30;58692;43.212;27.908;2023-01-30T12:08:52;6.66;62.03
71039;SHT30;58692;43.212;27.908;2023-01-30T12:11:29;6.89;61.40
71039;SHT30;58692;43.212;27.908;2023-01-30T12:14:16;8.65;56.90
71039;SHT30;58692;43.212;27.908;2023-01-30T12:16:53;7.73;57.76
71039;SHT30;58692;43.212;27.908;2023-01-30T12:22:20;8.54;55.74
71039;SHT30;58692;43.212;27.908;2023-01-30T12:24:56;8.11;56.83
71039;SHT30;58692;43.212;27.908;2023-01-30T12:27:27;8.41;55.40
71039;SHT30;58692;43.212;27.908;2023-01-30T12:32:25;7.94;57.22
71039;SHT30;58692;43.212;27.908;2023-01-30T12:34:51;7.62;57.64
71039;SHT30;58692;43.212;27.908;2023-01-30T12:42:57;6.89;59.88
71039;SHT30;58692;43.212;27.908;2023-01-30T12:45:29;7.09;60.04
71039;SHT30;58692;43.212;27.908;2023-01-30T12:53:36;7.52;59.52
71039;SHT30;58692;43.212;27.908;2023-01-30T12:58:53;7.65;58.93
71039;SHT30;58692;43.212;27.908;2023-01-30T13:12:24;6.85;60.76
71039;SHT30;58692;43.212;27.908;2023-01-30T13:14:55;7.35;59.94
71039;SHT30;58692;43.212;27.908;2023-01-30T13:19:56;6.92;61.18
71039;SHT30;58692;43.212;27.908;2023-01-30T13:22:40;6.40;62.49
71039;SHT30;58692;43.212;27.908;2023-01-30T13:27:54;5.71;64.51
71039;SHT30;58692;43.212;27.908;2023-01-30T13:30:21;5.63;65.09
71039;SHT30;58692;43.212;27.908;2023-01-30T13:32:53;5.40;65.75
71039;SHT30;58692;43.212;27.908;2023-01-30T13:35:27;5.30;66.04
71039;SHT30;58692;43.212;27.908;2023-01-30T13:37:56;5.20;66.48
71039;SHT30;58692;43.212;27.908;2023-01-30T13:40:33;5.20;66.76
71039;SHT30;58692;43.212;27.908;2023-01-30T13:43:31;5.21;66.82
71039;SHT30;58692;43.212;27.908;2023-01-30T13:46:06;5.20;66.75
71039;SHT30;58692;43.212;27.908;2023-01-30T13:48:41;5.16;66.23
71039;SHT30;58692;43.212;27.908;2023-01-30T13:56:53;4.99;66.49
71039;SHT30;58692;43.212;27.908;2023-01-30T14:02:12;5.23;66.07
71039;SHT30;58692;43.212;27.908;2023-01-30T14:04:42;5.20;66.29
71039;SHT30;58692;43.212;27.908;2023-01-30T14:07:24;5.27;66.73
71039;SHT30;58692;43.212;27.908;2023-01-30T14:10:15;5.21;66.92
71039;SHT30;58692;43.212;27.908;2023-01-30T14:12:51;5.01;67.47
71039;SHT30;58692;43.212;27.908;2023-01-30T14:15:21;5.13;67.28
71039;SHT30;58692;43.212;27.908;2023-01-30T14:18:05;5.00;67.45
71039;SHT30;58692;43.212;27.908;2023-01-30T14:20:43;4.80;68.06
71039;SHT30;58692;43.212;27.908;2023-01-30T14:25:52;4.73;69.08
71039;SHT30;58692;43.212;27.908;2023-01-30T14:30:52;4.67;69.33
71039;SHT30;58692;43.212;27.908;2023-01-30T14:35:45;4.67;69.39
71039;SHT30;58692;43.212;27.908;2023-01-30T14:38:13;4.76;69.62
71039;SHT30;58692;43.212;27.908;2023-01-30T14:40:42;4.59;69.77
71039;SHT30;58692;43.212;27.908;2023-01-30T14:49:01;4.50;70.32
71039;SHT30;58692;43.212;27.908;2023-01-30T14:51:48;4.48;70.62
71039;SHT30;58692;43.212;27.908;2023-01-30T14:57:03;4.48;70.67
71039;SHT30;58692;43.212;27.908;2023-01-30T14:59:37;4.48;70.59
71039;SHT30;58692;43.212;27.908;2023-01-30T15:07:48;4.42;71.24
71039;SHT30;58692;43.212;27.908;2023-01-30T15:10:36;4.21;71.43
71039;SHT30;58692;43.212;27.908;2023-01-30T15:27:01;3.88;70.65
71039;SHT30;58692;43.212;27.908;2023-01-30T15:32:31;3.87;71.38
71039;SHT30;58692;43.212;27.908;2023-01-30T15:35:11;3.90;71.52
71039;SHT30;58692;43.212;27.908;2023-01-30T15:40:24;3.93;71.73
71039;SHT30;58692;43.212;27.908;2023-01-30T15:46:02;3.99;71.65
71039;SHT30;58692;43.212;27.908;2023-01-30T15:48:53;4.04;71.51
71039;SHT30;58692;43.212;27.908;2023-01-30T15:51:26;4.02;71.42
71039;SHT30;58692;43.212;27.908;2023-01-30T15:53:55;4.05;71.55
71039;SHT30;58692;43.212;27.908;2023-01-30T15:56:25;4.04;71.76
71039;SHT30;58692;43.212;27.908;2023-01-30T15:58:52;4.08;71.89
71039;SHT30;58692;43.212;27.908;2023-01-30T16:01:22;4.11;72.13
71039;SHT30;58692;43.212;27.908;2023-01-30T16:03:49;4.04;72.67
71039;SHT30;58692;43.212;27.908;2023-01-30T16:06:35;4.02;73.18
71039;SHT30;58692;43.212;27.908;2023-01-30T16:09:04;4.01;73.48
71039;SHT30;58692;43.212;27.908;2023-01-30T16:11:38;3.94;73.70
71039;SHT30;58692;43.212;27.908;2023-01-30T16:14:05;3.95;73.97
71039;SHT30;58692;43.212;27.908;2023-01-30T16:16:31;3.84;74.21
71039;SHT30;58692;43.212;27.908;2023-01-30T16:19:01;3.73;74.63
71039;SHT30;58692;43.212;27.908;2023-01-30T16:21:30;3.80;74.53
71039;SHT30;58692;43.212;27.908;2023-01-30T16:24:16;3.78;75.13
71039;SHT30;58692;43.212;27.908;2023-01-30T16:26:47;3.77;74.77
71039;SHT30;58692;43.212;27.908;2023-01-30T16:29:19;3.81;74.27
71039;SHT30;58692;43.212;27.908;2023-01-30T16:31:48;3.84;74.16
71039;SHT30;58692;43.212;27.908;2023-01-30T16:36:56;3.84;74.01
71039;SHT30;58692;43.212;27.908;2023-01-30T16:39:28;3.83;74.01
71039;SHT30;58692;43.212;27.908;2023-01-30T16:41:55;3.80;73.97
71039;SHT30;58692;43.212;27.908;2023-01-30T16:44:23;3.77;73.53
71039;SHT30;58692;43.212;27.908;2023-01-30T16:49:41;3.78;73.83
71039;SHT30;58692;43.212;27.908;2023-01-30T16:52:25;3.83;73.60
71039;SHT30;58692;43.212;27.908;2023-01-30T16:54:55;3.81;73.33
71039;SHT30;58692;43.212;27.908;2023-01-30T17:00:05;3.67;73.91
71039;SHT30;58692;43.212;27.908;2023-01-30T17:02:36;3.73;73.99
71039;SHT30;58692;43.212;27.908;2023-01-30T17:05:19;3.70;74.06
71039;SHT30;58692;43.212;27.908;2023-01-30T17:07:46;3.61;74.14
71039;SHT30;58692;43.212;27.908;2023-01-30T17:16:26;3.67;73.52
71039;SHT30;58692;43.212;27.908;2023-01-30T17:18:55;3.63;73.40
71039;SHT30;58692;43.212;27.908;2023-01-30T17:21:25;3.71;73.12
71039;SHT30;58692;43.212;27.908;2023-01-30T17:23:56;3.73;73.08
71039;SHT30;58692;43.212;27.908;2023-01-30T17:26:22;3.70;73.19
71039;SHT30;58692;43.212;27.908;2023-01-30T17:28:48;3.73;72.94
71039;SHT30;58692;43.212;27.908;2023-01-30T17:31:15;3.69;72.81
71039;SHT30;58692;43.212;27.908;2023-01-30T17:33:41;3.59;73.18
71039;SHT30;58692;43.212;27.908;2023-01-30T17:36:22;3.59;73.29
71039;SHT30;58692;43.212;27.908;2023-01-30T17:38:49;3.73;72.95
71039;SHT30;58692;43.212;27.908;2023-01-30T17:41:30;3.66;73.19
71039;SHT30;58692;43.212;27.908;2023-01-30T17:43:57;3.63;73.17
71039;SHT30;58692;43.212;27.908;2023-01-30T17:46:31;3.63;73.29
71039;SHT30;58692;43.212;27.908;2023-01-30T17:48:57;3.64;73.13
71039;SHT30;58692;43.212;27.908;2023-01-30T17:51:23;3.52;73.45
71039;SHT30;58692;43.212;27.908;2023-01-30T17:53:48;3.46;73.78
71039;SHT30;58692;43.212;27.908;2023-01-30T17:56:17;3.52;73.77
71039;SHT30;58692;43.212;27.908;2023-01-30T17:58:43;3.40;74.04
71039;SHT30;58692;43.212;27.908;2023-01-30T18:01:09;3.43;74.02
71039;SHT30;58692;43.212;27.908;2023-01-30T18:03:36;3.39;74.25
71039;SHT30;58692;43.212;27.908;2023-01-30T18:06:01;3.40;74.20
71039;SHT30;58692;43.212;27.908;2023-01-30T18:08:27;3.47;73.89
71039;SHT30;58692;43.212;27.908;2023-01-30T18:10:52;3.33;74.34
71039;SHT30;58692;43.212;27.908;2023-01-30T18:13:18;3.36;74.48
71039;SHT30;58692;43.212;27.908;2023-01-30T18:15:44;3.52;74.21
71039;SHT30;58692;43.212;27.908;2023-01-30T18:18:11;3.54;73.87
71039;SHT30;58692;43.212;27.908;2023-01-30T18:20:40;3.54;73.73
71039;SHT30;58692;43.212;27.908;2023-01-30T18:23:05;3.54;73.78
71039;SHT30;58692;43.212;27.908;2023-01-30T18:25:31;3.52;73.72
71039;SHT30;58692;43.212;27.908;2023-01-30T18:27:56;3.52;73.62